createdAt,value
2023-05-14T00:03:57.111Z,96
2023-05-14T00:09:03.057Z,97.5
2023-05-14T00:14:09.150Z,98
2023-05-14T00:19:15.458Z,94.5
2023-05-14T00:24:21.365Z,93.5
2023-05-14T00:29:27.448Z,93
2023-05-14T00:34:33.547Z,96
2023-05-14T00:39:39.636Z,96
2023-05-14T00:44:45.724Z,94.5
2023-05-14T00:49:51.816Z,96
2023-05-14T00:54:57.926Z,95.5
2023-05-14T01:00:03.999Z,95.5
2023-05-14T01:05:10.185Z,96
2023-05-14T01:10:16.239Z,95.5
2023-05-14T01:15:22.343Z,95
2023-05-14T01:20:28.431Z,95.5
2023-05-14T01:25:34.518Z,94
2023-05-14T01:30:40.693Z,93.5
2023-05-14T01:35:46.702Z,94.5
2023-05-14T01:40:52.903Z,95
2023-05-14T01:45:59.319Z,95
2023-05-14T01:51:04.967Z,95
2023-05-14T01:56:11.146Z,95.5
2023-05-14T02:01:17.485Z,94
2023-05-14T02:06:24.245Z,95.5
2023-05-14T02:11:29.425Z,94.5
2023-05-14T02:16:35.442Z,94.5
2023-05-14T02:21:41.488Z,95
2023-05-14T02:26:47.602Z,94
2023-05-14T02:31:53.742Z,95
2023-05-14T02:36:59.923Z,96
2023-05-14T02:42:05.887Z,97.5
2023-05-14T02:47:12.128Z,96.5
2023-05-14T02:52:18.065Z,96
2023-05-14T02:57:24.181Z,96
2023-05-14T03:02:30.312Z,95
2023-05-14T03:07:36.386Z,94.5
2023-05-14T03:12:42.471Z,94.5
2023-05-14T03:17:48.608Z,95
2023-05-14T03:22:54.683Z,95
2023-05-14T03:28:00.965Z,94.5
2023-05-14T03:33:06.969Z,95.5
2023-05-14T03:38:12.938Z,94.5
2023-05-14T03:43:19.155Z,93
2023-05-14T03:48:25.183Z,91
2023-05-14T03:53:31.206Z,94.5
2023-05-14T03:58:37.287Z,93.5
2023-05-14T04:03:43.521Z,94
2023-05-14T04:08:49.484Z,93
2023-05-14T04:13:55.608Z,93.5
2023-05-14T04:19:01.686Z,93.5
2023-05-14T04:24:07.778Z,93.5
2023-05-14T04:29:13.870Z,94.5
2023-05-14T04:34:19.970Z,94.5
2023-05-14T04:39:26.080Z,94.5
2023-05-14T04:44:32.166Z,94
2023-05-14T04:49:38.250Z,94
2023-05-14T04:54:44.417Z,93.5
2023-05-14T04:59:50.550Z,92.5
2023-05-14T05:04:56.520Z,93
2023-05-14T05:10:02.640Z,94.5
2023-05-14T05:15:08.708Z,93
2023-05-14T05:20:14.830Z,93.5
2023-05-14T05:25:20.895Z,90.5
2023-05-14T05:30:27.056Z,91.5
2023-05-14T05:35:33.211Z,92
2023-05-14T05:40:39.189Z,92.5
2023-05-14T05:45:45.265Z,89.5
2023-05-14T05:50:51.506Z,90
2023-05-14T05:55:57.464Z,91.5
2023-05-14T06:01:03.584Z,89.5
2023-05-14T06:06:09.628Z,93
2023-05-14T06:11:16.015Z,90
2023-05-14T06:16:21.851Z,89.5
2023-05-14T06:21:27.949Z,90
2023-05-14T06:26:34.032Z,86.5
2023-05-14T06:31:40.177Z,88.5
2023-05-14T06:36:46.224Z,83.5
2023-05-14T06:41:52.302Z,83.5
2023-05-14T06:46:58.407Z,85.5
2023-05-14T06:52:04.609Z,81.5
2023-05-14T06:57:16.218Z,75
2023-05-14T07:02:22.351Z,75.5
2023-05-14T07:07:28.538Z,76.5
2023-05-14T07:12:34.529Z,80
2023-05-14T07:17:40.645Z,78.5
2023-05-14T07:22:46.871Z,83.5
2023-05-14T07:27:52.802Z,86.5
2023-05-14T07:32:58.938Z,85.5
2023-05-14T07:38:05.016Z,82.5
2023-05-14T07:43:11.127Z,88.5
2023-05-14T07:48:17.336Z,89.5
2023-05-14T07:53:23.488Z,91
2023-05-14T07:58:29.382Z,95
2023-05-14T08:03:35.526Z,95
2023-05-14T08:08:41.690Z,96.5
2023-05-14T08:13:47.655Z,97
2023-05-14T08:18:53.771Z,97
2023-05-14T08:23:59.846Z,97.5
2023-05-14T08:29:05.928Z,97.5
2023-05-14T08:34:12.029Z,95.5
2023-05-14T08:39:18.114Z,92.5
2023-05-14T08:44:24.249Z,92
2023-05-14T08:49:30.391Z,89.5
2023-05-14T08:54:36.515Z,86
2023-05-14T08:59:42.516Z,86
2023-05-14T09:04:48.788Z,74
2023-05-14T09:09:54.715Z,79
2023-05-14T09:15:00.922Z,73.5
2023-05-14T09:20:06.869Z,76.5
2023-05-14T09:25:13.043Z,84.5
2023-05-14T09:30:19.071Z,88
2023-05-14T09:35:25.174Z,89.5
2023-05-14T09:40:31.264Z,86.5
2023-05-14T09:45:37.380Z,91
2023-05-14T09:50:43.452Z,89
2023-05-14T09:55:49.535Z,94
2023-05-14T10:00:55.873Z,91.5
2023-05-14T10:06:01.734Z,85.5
2023-05-14T10:11:07.847Z,87.5
2023-05-14T10:16:13.923Z,92.5
2023-05-14T10:21:20.125Z,86
2023-05-14T10:26:26.105Z,90.5
2023-05-14T10:31:32.218Z,91.5
2023-05-14T10:36:38.293Z,93
2023-05-14T10:41:44.416Z,95
2023-05-14T10:46:50.515Z,94.5
2023-05-14T10:51:56.564Z,94.5
2023-05-14T10:57:02.666Z,88.5
2023-05-14T11:02:08.873Z,86.5
2023-05-14T11:07:15.237Z,87.5
2023-05-14T11:12:20.948Z,85
2023-05-14T11:17:27.125Z,86.5
2023-05-14T11:22:33.302Z,82
2023-05-14T11:27:39.264Z,86
2023-05-14T11:32:45.496Z,84
2023-05-14T11:37:51.497Z,83.5
2023-05-14T11:42:57.527Z,79.5
2023-05-14T11:48:03.728Z,75
2023-05-14T11:53:09.737Z,79.5
2023-05-14T11:58:15.831Z,81.5
2023-05-14T12:03:22.162Z,82.5
2023-05-14T12:08:27.999Z,82.5
2023-05-14T12:13:34.109Z,85
2023-05-14T12:18:40.351Z,82.5
2023-05-14T12:23:46.443Z,78.5
2023-05-14T12:28:52.399Z,77.5
2023-05-14T12:33:58.503Z,78.5
2023-05-14T12:39:04.592Z,78
2023-05-14T12:44:10.664Z,79.5
2023-05-14T12:49:16.907Z,76
2023-05-14T12:54:22.873Z,78
2023-05-14T12:59:28.946Z,73.5
2023-05-14T13:04:35.221Z,78
2023-05-14T13:09:41.144Z,77.5
2023-05-14T13:14:47.244Z,71.5
2023-05-14T13:19:53.470Z,72
2023-05-14T13:24:59.444Z,64
2023-05-14T13:30:05.618Z,64.5
2023-05-14T13:35:11.600Z,67
2023-05-14T13:40:17.692Z,67
2023-05-14T13:45:23.956Z,67.5
2023-05-14T13:50:29.908Z,62.5
2023-05-14T13:55:35.968Z,67
2023-05-14T14:00:42.091Z,59.5
2023-05-14T14:05:48.158Z,69
2023-05-14T14:10:54.408Z,58
2023-05-14T14:16:00.435Z,61
2023-05-14T14:21:06.475Z,57.5
2023-05-14T14:26:12.549Z,58.5
2023-05-14T14:31:18.686Z,60.5
2023-05-14T14:36:24.727Z,60
2023-05-14T14:41:30.980Z,66
2023-05-14T14:46:36.948Z,68.5
2023-05-14T14:51:43.033Z,73
2023-05-14T14:56:49.158Z,76.5
2023-05-14T15:01:55.223Z,71.5
2023-05-14T15:07:01.293Z,72.5
2023-05-14T15:12:07.572Z,70.5
2023-05-14T15:17:13.549Z,65
2023-05-14T15:22:19.599Z,65
2023-05-14T15:27:25.702Z,67
2023-05-14T15:32:31.795Z,67.5
2023-05-14T15:37:37.876Z,67.5
2023-05-14T15:42:44.035Z,66.5
2023-05-14T15:47:50.097Z,65.5
2023-05-14T15:52:56.172Z,65.5
2023-05-14T15:58:02.233Z,58.5
2023-05-14T16:03:08.416Z,66.5
2023-05-14T16:08:14.424Z,65.5
2023-05-14T16:13:20.712Z,64.5
2023-05-14T16:18:26.685Z,68
2023-05-14T16:23:32.727Z,68
2023-05-14T16:28:38.948Z,67.5
2023-05-14T16:33:45.153Z,69.5
2023-05-14T16:39:06.573Z,70
2023-05-14T16:43:57.104Z,65.5
2023-05-14T16:49:03.366Z,68.5
2023-05-14T16:54:09.336Z,66.5
2023-05-14T16:59:15.362Z,66.5
2023-05-14T17:04:21.498Z,69
2023-05-14T17:09:27.561Z,66
2023-05-14T17:14:33.769Z,64.5
2023-05-14T17:19:39.761Z,68.5
2023-05-14T17:24:45.860Z,69
2023-05-14T17:29:51.944Z,70
2023-05-14T17:34:58.046Z,73
2023-05-14T17:40:04.122Z,77.5
2023-05-14T17:45:10.471Z,77.5
2023-05-14T17:50:16.440Z,78
2023-05-14T17:55:22.549Z,74
2023-05-14T18:00:28.501Z,71
2023-05-14T18:05:34.631Z,71
2023-05-14T18:10:40.701Z,72.5
2023-05-14T18:15:47.238Z,75.5
2023-05-14T18:20:52.894Z,77.5
2023-05-14T18:25:58.976Z,78.5
2023-05-14T18:31:05.321Z,78.5
2023-05-14T18:36:11.179Z,79.5
2023-05-14T18:41:17.294Z,78
2023-05-14T18:46:23.379Z,75
2023-05-14T18:51:29.463Z,77
2023-05-14T18:56:35.693Z,77
2023-05-14T19:01:41.701Z,79
2023-05-14T19:06:47.747Z,82
2023-05-14T19:11:53.997Z,80.5
2023-05-14T19:17:00.057Z,80.5
2023-05-14T19:22:06.032Z,81
2023-05-14T19:27:12.122Z,81.5
2023-05-14T19:32:18.206Z,83
2023-05-14T19:37:24.307Z,82
2023-05-14T19:42:30.388Z,82
2023-05-14T19:47:36.564Z,82
2023-05-14T19:52:42.587Z,83
2023-05-14T19:57:48.832Z,83
2023-05-14T20:02:54.886Z,81
2023-05-14T20:08:00.932Z,82
2023-05-14T20:13:06.958Z,83
2023-05-14T20:18:13.086Z,83
2023-05-14T20:23:19.151Z,82
2023-05-14T20:28:25.389Z,82.5
2023-05-14T20:33:31.334Z,82.5
2023-05-14T20:38:37.458Z,83.5
2023-05-14T20:43:43.543Z,83
2023-05-14T20:48:49.630Z,83
2023-05-14T20:53:55.839Z,81.5
2023-05-14T20:59:01.811Z,84
2023-05-14T21:04:08.158Z,82
2023-05-14T21:09:14.019Z,82.5
2023-05-14T21:14:20.166Z,82.5
2023-05-14T21:19:26.205Z,83
2023-05-14T21:24:32.391Z,84.5
2023-05-14T21:29:38.386Z,84.5
2023-05-14T21:34:44.482Z,85
2023-05-14T21:39:50.554Z,84.5
2023-05-14T21:44:56.643Z,84.5
2023-05-14T21:50:02.751Z,84
2023-05-14T21:55:08.839Z,84.5
2023-05-14T22:00:14.918Z,85
2023-05-14T22:05:21.062Z,83.5
2023-05-14T22:11:03.886Z,83
2023-05-14T22:15:33.237Z,83
2023-05-14T22:20:39.412Z,82.5
2023-05-14T22:25:45.403Z,83.5
2023-05-14T22:30:51.562Z,83.5
2023-05-14T22:35:57.625Z,80
2023-05-14T22:41:10.768Z,81
2023-05-14T22:46:09.815Z,82
2023-05-14T22:51:15.904Z,81.5
2023-05-14T22:56:25.018Z,82
2023-05-14T23:01:28.336Z,82
2023-05-14T23:06:34.191Z,80
2023-05-14T23:11:40.306Z,81
2023-05-14T23:16:46.407Z,81.5
2023-05-14T23:21:52.494Z,82
2023-05-14T23:26:58.573Z,83
2023-05-14T23:32:04.720Z,83
2023-05-14T23:37:10.736Z,84.5
2023-05-14T23:42:16.847Z,82.5
2023-05-14T23:47:22.958Z,82
2023-05-14T23:52:31.301Z,83.5
2023-05-14T23:57:40.759Z,83.5
